Terminal Aerodrome Forecast
Issued by NWS

Home | Current Version | Previous Version | Graphics & Text | Print | Product List | Glossary On
Versions: 1 2 3 4 5 6 7 8 9 10 11 12 13 14 15
000
FTUS43 KMPX 201700
TAFRWF
TAF
KRWF 201739Z 2018/2118 09007KT P6SM SCT250
     FM210300 12005KT P6SM SCT090 BKN250
     FM210800 31006KT P6SM BKN090
     FM211300 32016G24KT P6SM SCT120=

USA.gov is the U.S. government's official web portal to all federal, state and local government web resources and services.